sensor_id;sensor_type;location;lat;lon;timestamp;P1;durP1;ratioP1;P2;durP2;ratioP2
19619;SDS011;9957;52.282;21.110;2023-03-24T00:02:11;16.20;;;4.77;;
19619;SDS011;9957;52.282;21.110;2023-03-24T00:04:38;9.37;;;4.13;;
19619;SDS011;9957;52.282;21.110;2023-03-24T00:07:07;8.80;;;4.07;;
19619;SDS011;9957;52.282;21.110;2023-03-24T00:09:38;9.37;;;4.40;;
19619;SDS011;9957;52.282;21.110;2023-03-24T00:12:04;9.33;;;4.17;;
19619;SDS011;9957;52.282;21.110;2023-03-24T00:14:30;9.73;;;3.57;;
19619;SDS011;9957;52.282;21.110;2023-03-24T00:16:56;9.07;;;4.00;;
19619;SDS011;9957;52.282;21.110;2023-03-24T00:19:23;7.13;;;3.87;;
19619;SDS011;9957;52.282;21.110;2023-03-24T00:21:50;8.77;;;4.00;;
19619;SDS011;9957;52.282;21.110;2023-03-24T00:24:20;12.90;;;3.77;;
19619;SDS011;9957;52.282;21.110;2023-03-24T00:26:46;10.43;;;4.27;;
19619;SDS011;9957;52.282;21.110;2023-03-24T00:29:15;11.10;;;4.50;;
19619;SDS011;9957;52.282;21.110;2023-03-24T00:31:43;8.63;;;4.07;;
19619;SDS011;9957;52.282;21.110;2023-03-24T00:34:09;17.70;;;4.20;;
19619;SDS011;9957;52.282;21.110;2023-03-24T00:36:37;9.67;;;3.87;;
19619;SDS011;9957;52.282;21.110;2023-03-24T00:39:03;8.77;;;4.27;;
19619;SDS011;9957;52.282;21.110;2023-03-24T00:41:30;8.33;;;3.67;;
19619;SDS011;9957;52.282;21.110;2023-03-24T00:43:57;9.60;;;4.60;;
19619;SDS011;9957;52.282;21.110;2023-03-24T00:46:23;16.03;;;5.20;;
19619;SDS011;9957;52.282;21.110;2023-03-24T00:48:57;10.33;;;4.70;;
19619;SDS011;9957;52.282;21.110;2023-03-24T00:51:30;12.03;;;5.63;;
19619;SDS011;9957;52.282;21.110;2023-03-24T00:53:57;12.23;;;5.20;;
19619;SDS011;9957;52.282;21.110;2023-03-24T00:56:25;16.83;;;6.03;;
19619;SDS011;9957;52.282;21.110;2023-03-24T00:58:53;15.73;;;5.50;;
19619;SDS011;9957;52.282;21.110;2023-03-24T01:01:21;11.30;;;5.60;;
19619;SDS011;9957;52.282;21.110;2023-03-24T01:03:47;20.60;;;6.07;;
19619;SDS011;9957;52.282;21.110;2023-03-24T01:06:15;13.03;;;5.80;;
19619;SDS011;9957;52.282;21.110;2023-03-24T01:08:42;15.00;;;5.77;;
19619;SDS011;9957;52.282;21.110;2023-03-24T01:11:09;14.33;;;5.47;;
19619;SDS011;9957;52.282;21.110;2023-03-24T01:13:35;11.87;;;5.90;;
19619;SDS011;9957;52.282;21.110;2023-03-24T01:16:01;16.20;;;5.67;;
19619;SDS011;9957;52.282;21.110;2023-03-24T01:18:27;12.43;;;5.50;;
19619;SDS011;9957;52.282;21.110;2023-03-24T01:20:53;11.30;;;5.50;;
19619;SDS011;9957;52.282;21.110;2023-03-24T01:23:21;9.30;;;4.77;;
19619;SDS011;9957;52.282;21.110;2023-03-24T01:25:48;15.00;;;5.90;;
19619;SDS011;9957;52.282;21.110;2023-03-24T01:28:16;16.23;;;6.30;;
19619;SDS011;9957;52.282;21.110;2023-03-24T01:30:43;13.10;;;5.83;;
19619;SDS011;9957;52.282;21.110;2023-03-24T01:33:09;14.30;;;5.93;;
19619;SDS011;9957;52.282;21.110;2023-03-24T01:35:35;14.13;;;5.83;;
19619;SDS011;9957;52.282;21.110;2023-03-24T01:38:05;14.77;;;6.07;;
19619;SDS011;9957;52.282;21.110;2023-03-24T01:40:32;16.93;;;6.53;;
19619;SDS011;9957;52.282;21.110;2023-03-24T01:42:59;14.47;;;5.87;;
19619;SDS011;9957;52.282;21.110;2023-03-24T01:48:07;15.63;;;5.90;;
19619;SDS011;9957;52.282;21.110;2023-03-24T01:50:34;16.93;;;6.00;;
19619;SDS011;9957;52.282;21.110;2023-03-24T01:53:00;11.70;;;5.53;;
19619;SDS011;9957;52.282;21.110;2023-03-24T01:55:26;15.73;;;6.00;;
19619;SDS011;9957;52.282;21.110;2023-03-24T01:57:54;16.97;;;6.23;;
19619;SDS011;9957;52.282;21.110;2023-03-24T02:00:21;16.70;;;5.57;;
19619;SDS011;9957;52.282;21.110;2023-03-24T02:02:49;11.90;;;5.23;;
19619;SDS011;9957;52.282;21.110;2023-03-24T02:05:19;17.70;;;6.67;;
19619;SDS011;9957;52.282;21.110;2023-03-24T02:07:50;15.57;;;6.30;;
19619;SDS011;9957;52.282;21.110;2023-03-24T02:10:18;17.37;;;6.73;;
19619;SDS011;9957;52.282;21.110;2023-03-24T02:12:44;22.17;;;6.87;;
19619;SDS011;9957;52.282;21.110;2023-03-24T02:15:12;34.60;;;8.17;;
19619;SDS011;9957;52.282;21.110;2023-03-24T02:33:13;24.20;;;8.00;;
19619;SDS011;9957;52.282;21.110;2023-03-24T02:38:37;21.73;;;7.97;;
19619;SDS011;9957;52.282;21.110;2023-03-24T02:44:04;20.13;;;6.97;;
19619;SDS011;9957;52.282;21.110;2023-03-24T02:46:44;26.53;;;7.73;;
19619;SDS011;9957;52.282;21.110;2023-03-24T02:49:20;19.63;;;7.47;;
19619;SDS011;9957;52.282;21.110;2023-03-24T02:54:24;19.17;;;6.83;;
19619;SDS011;9957;52.282;21.110;2023-03-24T02:56:56;25.50;;;7.57;;
19619;SDS011;9957;52.282;21.110;2023-03-24T03:02:03;27.67;;;7.47;;
19619;SDS011;9957;52.282;21.110;2023-03-24T03:04:33;22.27;;;7.80;;
19619;SDS011;9957;52.282;21.110;2023-03-24T03:07:02;21.27;;;7.83;;
19619;SDS011;9957;52.282;21.110;2023-03-24T03:09:38;34.90;;;7.27;;
19619;SDS011;9957;52.282;21.110;2023-03-24T03:12:06;29.80;;;7.90;;
19619;SDS011;9957;52.282;21.110;2023-03-24T03:14:38;26.63;;;7.90;;
19619;SDS011;9957;52.282;21.110;2023-03-24T03:17:06;36.63;;;9.67;;
19619;SDS011;9957;52.282;21.110;2023-03-24T03:19:39;36.07;;;9.37;;
19619;SDS011;9957;52.282;21.110;2023-03-24T03:22:07;35.70;;;8.57;;
19619;SDS011;9957;52.282;21.110;2023-03-24T03:24:39;35.53;;;8.00;;
19619;SDS011;9957;52.282;21.110;2023-03-24T03:27:07;32.23;;;7.83;;
19619;SDS011;9957;52.282;21.110;2023-03-24T03:29:39;26.73;;;8.20;;
19619;SDS011;9957;52.282;21.110;2023-03-24T03:32:06;21.10;;;7.20;;
19619;SDS011;9957;52.282;21.110;2023-03-24T03:34:41;26.13;;;7.40;;
19619;SDS011;9957;52.282;21.110;2023-03-24T03:42:24;18.30;;;7.60;;
19619;SDS011;9957;52.282;21.110;2023-03-24T03:44:50;22.20;;;7.37;;
19619;SDS011;9957;52.282;21.110;2023-03-24T03:47:16;32.90;;;18.40;;
19619;SDS011;9957;52.282;21.110;2023-03-24T03:49:43;32.77;;;12.37;;
19619;SDS011;9957;52.282;21.110;2023-03-24T03:52:10;35.80;;;16.70;;
19619;SDS011;9957;52.282;21.110;2023-03-24T03:54:36;18.57;;;7.73;;
19619;SDS011;9957;52.282;21.110;2023-03-24T03:57:03;26.03;;;6.90;;
19619;SDS011;9957;52.282;21.110;2023-03-24T03:59:30;18.30;;;7.30;;
19619;SDS011;9957;52.282;21.110;2023-03-24T04:02:02;37.80;;;8.43;;
19619;SDS011;9957;52.282;21.110;2023-03-24T04:12:26;38.70;;;8.50;;
19619;SDS011;9957;52.282;21.110;2023-03-24T04:27:35;42.70;;;7.87;;
19619;SDS011;9957;52.282;21.110;2023-03-24T04:30:11;53.50;;;8.67;;
19619;SDS011;9957;52.282;21.110;2023-03-24T04:35:08;26.07;;;9.50;;
19619;SDS011;9957;52.282;21.110;2023-03-24T04:37:35;22.57;;;6.70;;
19619;SDS011;9957;52.282;21.110;2023-03-24T04:40:04;29.37;;;6.20;;
19619;SDS011;9957;52.282;21.110;2023-03-24T04:42:35;28.50;;;6.37;;
19619;SDS011;9957;52.282;21.110;2023-03-24T04:45:03;28.87;;;6.30;;
19619;SDS011;9957;52.282;21.110;2023-03-24T04:47:31;19.53;;;5.80;;
19619;SDS011;9957;52.282;21.110;2023-03-24T04:50:06;20.57;;;6.50;;
19619;SDS011;9957;52.282;21.110;2023-03-24T04:52:35;24.67;;;6.60;;
19619;SDS011;9957;52.282;21.110;2023-03-24T04:55:01;19.77;;;6.83;;
19619;SDS011;9957;52.282;21.110;2023-03-24T04:57:28;39.43;;;7.90;;
19619;SDS011;9957;52.282;21.110;2023-03-24T04:59:54;26.63;;;6.87;;
19619;SDS011;9957;52.282;21.110;2023-03-24T05:02:20;26.80;;;6.50;;
19619;SDS011;9957;52.282;21.110;2023-03-24T05:04:46;23.23;;;6.47;;
19619;SDS011;9957;52.282;21.110;2023-03-24T05:07:12;16.77;;;6.17;;
19619;SDS011;9957;52.282;21.110;2023-03-24T05:09:39;22.17;;;6.63;;
19619;SDS011;9957;52.282;21.110;2023-03-24T05:12:05;16.87;;;6.63;;
19619;SDS011;9957;52.282;21.110;2023-03-24T05:14:32;21.33;;;6.50;;
19619;SDS011;9957;52.282;21.110;2023-03-24T05:16:58;29.10;;;7.10;;
19619;SDS011;9957;52.282;21.110;2023-03-24T05:19:24;39.07;;;8.20;;
19619;SDS011;9957;52.282;21.110;2023-03-24T05:21:50;37.40;;;8.30;;
19619;SDS011;9957;52.282;21.110;2023-03-24T05:24:17;22.57;;;7.73;;
19619;SDS011;9957;52.282;21.110;2023-03-24T05:26:43;45.83;;;6.80;;
19619;SDS011;9957;52.282;21.110;2023-03-24T05:29:09;31.10;;;7.37;;
19619;SDS011;9957;52.282;21.110;2023-03-24T05:31:35;21.77;;;7.23;;
19619;SDS011;9957;52.282;21.110;2023-03-24T05:34:02;27.80;;;6.73;;
19619;SDS011;9957;52.282;21.110;2023-03-24T05:36:28;24.57;;;7.27;;
19619;SDS011;9957;52.282;21.110;2023-03-24T05:38:54;24.83;;;7.23;;
19619;SDS011;9957;52.282;21.110;2023-03-24T05:41:20;30.17;;;6.80;;
19619;SDS011;9957;52.282;21.110;2023-03-24T05:43:46;43.67;;;8.40;;
19619;SDS011;9957;52.282;21.110;2023-03-24T05:46:13;29.07;;;7.33;;
19619;SDS011;9957;52.282;21.110;2023-03-24T05:48:39;18.80;;;7.17;;
19619;SDS011;9957;52.282;21.110;2023-03-24T05:51:05;21.33;;;7.43;;
19619;SDS011;9957;52.282;21.110;2023-03-24T05:53:31;29.17;;;7.77;;
19619;SDS011;9957;52.282;21.110;2023-03-24T05:55:57;34.27;;;8.20;;
19619;SDS011;9957;52.282;21.110;2023-03-24T05:58:23;25.37;;;8.97;;
19619;SDS011;9957;52.282;21.110;2023-03-24T06:00:49;23.33;;;9.20;;
19619;SDS011;9957;52.282;21.110;2023-03-24T06:03:16;39.57;;;9.63;;
19619;SDS011;9957;52.282;21.110;2023-03-24T06:05:42;31.27;;;9.33;;
19619;SDS011;9957;52.282;21.110;2023-03-24T06:08:10;36.80;;;9.10;;
19619;SDS011;9957;52.282;21.110;2023-03-24T06:10:36;25.47;;;8.70;;
19619;SDS011;9957;52.282;21.110;2023-03-24T06:13:02;18.90;;;7.30;;
19619;SDS011;9957;52.282;21.110;2023-03-24T06:15:28;30.93;;;8.50;;
19619;SDS011;9957;52.282;21.110;2023-03-24T06:17:54;23.63;;;8.63;;
19619;SDS011;9957;52.282;21.110;2023-03-24T06:20:21;33.10;;;8.40;;
19619;SDS011;9957;52.282;21.110;2023-03-24T06:22:47;29.23;;;9.10;;
19619;SDS011;9957;52.282;21.110;2023-03-24T06:25:14;23.13;;;8.73;;
19619;SDS011;9957;52.282;21.110;2023-03-24T06:27:41;26.47;;;9.03;;
19619;SDS011;9957;52.282;21.110;2023-03-24T06:30:10;43.83;;;9.33;;
19619;SDS011;9957;52.282;21.110;2023-03-24T06:32:36;31.80;;;9.23;;
19619;SDS011;9957;52.282;21.110;2023-03-24T06:35:02;29.37;;;9.43;;
19619;SDS011;9957;52.282;21.110;2023-03-24T06:37:28;32.20;;;8.60;;
19619;SDS011;9957;52.282;21.110;2023-03-24T06:39:54;34.97;;;9.37;;
19619;SDS011;9957;52.282;21.110;2023-03-24T06:42:20;28.77;;;9.30;;
19619;SDS011;9957;52.282;21.110;2023-03-24T06:44:46;32.60;;;8.67;;
19619;SDS011;9957;52.282;21.110;2023-03-24T06:47:15;25.87;;;8.93;;
